sensor_id;sensor_type;location;lat;lon;timestamp;P1;durP1;ratioP1;P2;durP2;ratioP2
68744;SDS011;66104;45.456;11.064;2023-02-26T00:01:16;66.70;;;32.70;;
68744;SDS011;66104;45.456;11.064;2023-02-26T00:03:55;60.80;;;30.80;;
68744;SDS011;66104;45.456;11.064;2023-02-26T00:06:33;53.30;;;27.00;;
68744;SDS011;66104;45.456;11.064;2023-02-26T00:09:16;55.60;;;27.90;;
68744;SDS011;66104;45.456;11.064;2023-02-26T00:11:54;66.10;;;31.10;;
68744;SDS011;66104;45.456;11.064;2023-02-26T00:14:32;58.50;;;28.20;;
68744;SDS011;66104;45.456;11.064;2023-02-26T00:17:28;49.50;;;25.40;;
68744;SDS011;66104;45.456;11.064;2023-02-26T00:20:20;41.10;;;20.30;;
68744;SDS011;66104;45.456;11.064;2023-02-26T00:23:01;44.90;;;22.60;;
68744;SDS011;66104;45.456;11.064;2023-02-26T00:25:40;52.00;;;21.90;;
68744;SDS011;66104;45.456;11.064;2023-02-26T00:28:23;44.00;;;20.50;;
68744;SDS011;66104;45.456;11.064;2023-02-26T00:31:02;44.20;;;21.60;;
68744;SDS011;66104;45.456;11.064;2023-02-26T00:33:43;41.30;;;19.80;;
68744;SDS011;66104;45.456;11.064;2023-02-26T00:36:27;37.50;;;20.70;;
68744;SDS011;66104;45.456;11.064;2023-02-26T00:39:19;42.40;;;21.10;;
68744;SDS011;66104;45.456;11.064;2023-02-26T00:42:09;39.80;;;21.40;;
68744;SDS011;66104;45.456;11.064;2023-02-26T00:44:51;43.20;;;21.60;;
68744;SDS011;66104;45.456;11.064;2023-02-26T00:47:35;45.00;;;22.00;;
68744;SDS011;66104;45.456;11.064;2023-02-26T00:50:20;40.00;;;21.20;;
68744;SDS011;66104;45.456;11.064;2023-02-26T00:53:10;46.60;;;21.20;;
68744;SDS011;66104;45.456;11.064;2023-02-26T00:55:52;50.00;;;23.90;;
68744;SDS011;66104;45.456;11.064;2023-02-26T00:58:29;50.50;;;23.00;;
68744;SDS011;66104;45.456;11.064;2023-02-26T01:01:05;51.40;;;25.40;;
68744;SDS011;66104;45.456;11.064;2023-02-26T01:03:44;58.00;;;27.00;;
68744;SDS011;66104;45.456;11.064;2023-02-26T01:06:23;50.40;;;25.80;;
68744;SDS011;66104;45.456;11.064;2023-02-26T01:09:04;50.00;;;24.10;;
68744;SDS011;66104;45.456;11.064;2023-02-26T01:11:51;52.10;;;24.40;;
68744;SDS011;66104;45.456;11.064;2023-02-26T01:14:33;51.90;;;24.10;;
68744;SDS011;66104;45.456;11.064;2023-02-26T01:17:17;50.80;;;24.10;;
68744;SDS011;66104;45.456;11.064;2023-02-26T01:19:59;52.40;;;23.60;;
68744;SDS011;66104;45.456;11.064;2023-02-26T01:22:41;42.50;;;22.60;;
68744;SDS011;66104;45.456;11.064;2023-02-26T01:25:26;48.90;;;23.70;;
68744;SDS011;66104;45.456;11.064;2023-02-26T01:28:15;43.80;;;22.40;;
68744;SDS011;66104;45.456;11.064;2023-02-26T01:30:57;45.80;;;22.50;;
68744;SDS011;66104;45.456;11.064;2023-02-26T01:33:40;45.00;;;21.30;;
68744;SDS011;66104;45.456;11.064;2023-02-26T01:36:21;47.90;;;21.80;;
68744;SDS011;66104;45.456;11.064;2023-02-26T01:39:05;47.40;;;22.60;;
68744;SDS011;66104;45.456;11.064;2023-02-26T01:41:50;40.40;;;20.90;;
68744;SDS011;66104;45.456;11.064;2023-02-26T01:44:32;39.50;;;20.80;;
68744;SDS011;66104;45.456;11.064;2023-02-26T01:47:19;57.20;;;24.40;;
68744;SDS011;66104;45.456;11.064;2023-02-26T01:50:14;57.40;;;26.90;;
68744;SDS011;66104;45.456;11.064;2023-02-26T01:53:17;55.90;;;22.60;;
68744;SDS011;66104;45.456;11.064;2023-02-26T01:55:59;52.70;;;23.40;;
68744;SDS011;66104;45.456;11.064;2023-02-26T01:58:41;51.00;;;23.80;;
68744;SDS011;66104;45.456;11.064;2023-02-26T02:01:18;48.70;;;22.20;;
68744;SDS011;66104;45.456;11.064;2023-02-26T02:03:55;58.70;;;25.10;;
68744;SDS011;66104;45.456;11.064;2023-02-26T02:06:32;44.10;;;18.70;;
68744;SDS011;66104;45.456;11.064;2023-02-26T02:09:09;49.80;;;21.30;;
68744;SDS011;66104;45.456;11.064;2023-02-26T02:11:56;49.00;;;23.80;;
68744;SDS011;66104;45.456;11.064;2023-02-26T02:14:49;54.40;;;24.80;;
68744;SDS011;66104;45.456;11.064;2023-02-26T02:17:43;45.10;;;21.80;;
68744;SDS011;66104;45.456;11.064;2023-02-26T02:20:46;51.70;;;23.70;;
68744;SDS011;66104;45.456;11.064;2023-02-26T02:23:38;59.80;;;18.50;;
68744;SDS011;66104;45.456;11.064;2023-02-26T02:26:38;32.00;;;12.40;;
68744;SDS011;66104;45.456;11.064;2023-02-26T02:32:37;12.20;;;5.10;;
68744;SDS011;66104;45.456;11.064;2023-02-26T02:35:21;12.80;;;5.60;;
68744;SDS011;66104;45.456;11.064;2023-02-26T02:38:10;12.20;;;4.80;;
68744;SDS011;66104;45.456;11.064;2023-02-26T02:40:55;12.60;;;3.60;;
68744;SDS011;66104;45.456;11.064;2023-02-26T02:43:38;8.70;;;3.60;;
68744;SDS011;66104;45.456;11.064;2023-02-26T02:46:22;8.20;;;2.80;;
68744;SDS011;66104;45.456;11.064;2023-02-26T02:49:04;3.30;;;2.20;;
68744;SDS011;66104;45.456;11.064;2023-02-26T02:51:46;8.10;;;2.40;;
68744;SDS011;66104;45.456;11.064;2023-02-26T02:54:32;4.30;;;2.00;;
68744;SDS011;66104;45.456;11.064;2023-02-26T02:57:18;3.60;;;1.80;;
68744;SDS011;66104;45.456;11.064;2023-02-26T02:59:59;2.60;;;1.40;;
68744;SDS011;66104;45.456;11.064;2023-02-26T03:02:45;3.80;;;1.30;;
68744;SDS011;66104;45.456;11.064;2023-02-26T03:05:27;2.80;;;1.70;;
68744;SDS011;66104;45.456;11.064;2023-02-26T03:08:07;1.80;;;1.10;;
68744;SDS011;66104;45.456;11.064;2023-02-26T03:10:49;3.00;;;1.30;;
68744;SDS011;66104;45.456;11.064;2023-02-26T03:13:26;2.10;;;1.30;;
68744;SDS011;66104;45.456;11.064;2023-02-26T03:16:17;3.30;;;1.70;;
68744;SDS011;66104;45.456;11.064;2023-02-26T03:19:20;2.90;;;1.30;;
68744;SDS011;66104;45.456;11.064;2023-02-26T03:22:06;1.80;;;1.20;;
68744;SDS011;66104;45.456;11.064;2023-02-26T03:25:13;2.30;;;1.30;;
68744;SDS011;66104;45.456;11.064;2023-02-26T03:27:58;1.80;;;1.20;;
68744;SDS011;66104;45.456;11.064;2023-02-26T03:30:43;2.40;;;1.30;;
68744;SDS011;66104;45.456;11.064;2023-02-26T03:33:29;2.00;;;1.30;;
68744;SDS011;66104;45.456;11.064;2023-02-26T03:36:15;4.10;;;1.20;;
68744;SDS011;66104;45.456;11.064;2023-02-26T03:39:10;2.40;;;1.30;;
68744;SDS011;66104;45.456;11.064;2023-02-26T03:41:55;4.30;;;1.20;;
68744;SDS011;66104;45.456;11.064;2023-02-26T03:44:49;2.00;;;1.20;;
68744;SDS011;66104;45.456;11.064;2023-02-26T03:47:30;1.60;;;1.10;;
68744;SDS011;66104;45.456;11.064;2023-02-26T03:50:12;2.50;;;1.20;;
68744;SDS011;66104;45.456;11.064;2023-02-26T03:53:04;1.40;;;1.10;;
68744;SDS011;66104;45.456;11.064;2023-02-26T03:55:54;1.40;;;1.10;;
68744;SDS011;66104;45.456;11.064;2023-02-26T03:59:08;2.50;;;1.30;;
68744;SDS011;66104;45.456;11.064;2023-02-26T04:01:52;2.20;;;1.20;;
68744;SDS011;66104;45.456;11.064;2023-02-26T04:04:34;1.40;;;0.90;;
68744;SDS011;66104;45.456;11.064;2023-02-26T04:07:16;1.80;;;1.00;;
68744;SDS011;66104;45.456;11.064;2023-02-26T04:09:54;1.60;;;1.10;;
68744;SDS011;66104;45.456;11.064;2023-02-26T04:12:31;3.20;;;1.00;;
68744;SDS011;66104;45.456;11.064;2023-02-26T04:15:12;1.30;;;0.90;;
68744;SDS011;66104;45.456;11.064;2023-02-26T04:17:49;1.50;;;0.90;;
68744;SDS011;66104;45.456;11.064;2023-02-26T04:20:26;2.10;;;1.10;;
68744;SDS011;66104;45.456;11.064;2023-02-26T04:23:03;1.40;;;1.10;;
68744;SDS011;66104;45.456;11.064;2023-02-26T04:25:41;1.70;;;0.80;;
68744;SDS011;66104;45.456;11.064;2023-02-26T04:28:20;1.80;;;1.00;;
68744;SDS011;66104;45.456;11.064;2023-02-26T04:30:57;1.60;;;1.00;;
68744;SDS011;66104;45.456;11.064;2023-02-26T04:33:34;1.40;;;1.00;;
68744;SDS011;66104;45.456;11.064;2023-02-26T04:36:13;1.10;;;0.90;;
68744;SDS011;66104;45.456;11.064;2023-02-26T04:38:49;1.30;;;1.00;;
68744;SDS011;66104;45.456;11.064;2023-02-26T04:41:25;1.20;;;0.90;;
68744;SDS011;66104;45.456;11.064;2023-02-26T04:44:02;2.50;;;0.80;;
68744;SDS011;66104;45.456;11.064;2023-02-26T04:46:42;1.60;;;1.00;;
68744;SDS011;66104;45.456;11.064;2023-02-26T04:49:19;1.20;;;1.00;;
68744;SDS011;66104;45.456;11.064;2023-02-26T04:51:56;1.40;;;0.90;;
68744;SDS011;66104;45.456;11.064;2023-02-26T04:54:32;2.60;;;0.90;;
68744;SDS011;66104;45.456;11.064;2023-02-26T04:57:08;1.80;;;1.10;;
68744;SDS011;66104;45.456;11.064;2023-02-26T04:59:49;1.70;;;0.90;;
68744;SDS011;66104;45.456;11.064;2023-02-26T05:02:30;1.50;;;1.00;;
68744;SDS011;66104;45.456;11.064;2023-02-26T05:05:09;1.10;;;1.00;;
68744;SDS011;66104;45.456;11.064;2023-02-26T05:07:46;1.40;;;0.90;;
68744;SDS011;66104;45.456;11.064;2023-02-26T05:10:26;1.30;;;1.00;;
68744;SDS011;66104;45.456;11.064;2023-02-26T05:13:02;1.40;;;1.00;;
68744;SDS011;66104;45.456;11.064;2023-02-26T05:15:39;1.50;;;1.10;;
68744;SDS011;66104;45.456;11.064;2023-02-26T05:18:16;1.40;;;1.00;;
68744;SDS011;66104;45.456;11.064;2023-02-26T05:20:55;1.30;;;1.00;;
68744;SDS011;66104;45.456;11.064;2023-02-26T05:23:34;1.40;;;0.90;;
68744;SDS011;66104;45.456;11.064;2023-02-26T05:26:10;1.40;;;1.00;;
68744;SDS011;66104;45.456;11.064;2023-02-26T05:28:47;1.20;;;0.90;;
68744;SDS011;66104;45.456;11.064;2023-02-26T05:31:23;1.60;;;1.10;;
68744;SDS011;66104;45.456;11.064;2023-02-26T05:34:00;1.40;;;1.00;;
68744;SDS011;66104;45.456;11.064;2023-02-26T05:36:37;1.40;;;0.90;;
68744;SDS011;66104;45.456;11.064;2023-02-26T05:39:15;1.40;;;1.10;;
68744;SDS011;66104;45.456;11.064;2023-02-26T05:41:53;1.40;;;1.20;;
68744;SDS011;66104;45.456;11.064;2023-02-26T05:44:30;1.20;;;1.10;;
68744;SDS011;66104;45.456;11.064;2023-02-26T05:47:07;1.10;;;1.00;;
68744;SDS011;66104;45.456;11.064;2023-02-26T05:49:44;2.70;;;1.10;;
68744;SDS011;66104;45.456;11.064;2023-02-26T05:52:21;1.80;;;1.20;;
68744;SDS011;66104;45.456;11.064;2023-02-26T05:54:57;1.50;;;1.00;;
68744;SDS011;66104;45.456;11.064;2023-02-26T05:57:33;1.20;;;1.10;;
68744;SDS011;66104;45.456;11.064;2023-02-26T06:00:13;2.50;;;1.20;;
68744;SDS011;66104;45.456;11.064;2023-02-26T06:02:54;1.70;;;1.10;;
68744;SDS011;66104;45.456;11.064;2023-02-26T06:05:30;1.60;;;1.20;;
68744;SDS011;66104;45.456;11.064;2023-02-26T06:08:08;2.00;;;1.20;;
68744;SDS011;66104;45.456;11.064;2023-02-26T06:10:46;1.60;;;0.90;;
68744;SDS011;66104;45.456;11.064;2023-02-26T06:13:23;2.40;;;1.20;;
68744;SDS011;66104;45.456;11.064;2023-02-26T06:16:01;1.20;;;0.90;;
68744;SDS011;66104;45.456;11.064;2023-02-26T06:18:38;3.80;;;1.00;;
68744;SDS011;66104;45.456;11.064;2023-02-26T06:21:15;2.20;;;1.00;;
68744;SDS011;66104;45.456;11.064;2023-02-26T06:23:51;1.60;;;1.10;;
68744;SDS011;66104;45.456;11.064;2023-02-26T06:26:28;1.70;;;1.10;;
68744;SDS011;66104;45.456;11.064;2023-02-26T06:29:05;1.40;;;1.10;;
68744;SDS011;66104;45.456;11.064;2023-02-26T06:31:42;1.40;;;1.20;;
68744;SDS011;66104;45.456;11.064;2023-02-26T06:34:19;8.00;;;1.40;;
68744;SDS011;66104;45.456;11.064;2023-02-26T06:36:56;1.70;;;1.20;;
68744;SDS011;66104;45.456;11.064;2023-02-26T06:39:33;1.70;;;1.30;;
68744;SDS011;66104;45.456;11.064;2023-02-26T06:42:10;1.20;;;1.00;;
68744;SDS011;66104;45.456;11.064;2023-02-26T06:44:49;1.40;;;1.10;;
68744;SDS011;66104;45.456;11.064;2023-02-26T06:47:27;1.60;;;1.20;;
68744;SDS011;66104;45.456;11.064;2023-02-26T06:50:04;1.40;;;1.00;;
68744;SDS011;66104;45.456;11.064;2023-02-26T06:52:45;1.20;;;1.00;;
68744;SDS011;66104;45.456;11.064;2023-02-26T06:55:22;2.40;;;1.20;;
68744;SDS011;66104;45.456;11.064;2023-02-26T06:57:59;1.30;;;1.00;;
68744;SDS011;66104;45.456;11.064;2023-02-26T07:00:37;1.20;;;1.10;;
68744;SDS011;66104;45.456;11.064;2023-02-26T07:03:15;2.30;;;1.10;;
68744;SDS011;66104;45.456;11.064;2023-02-26T07:05:53;1.90;;;1.20;;
68744;SDS011;66104;45.456;11.064;2023-02-26T07:08:54;1.30;;;1.10;;
68744;SDS011;66104;45.456;11.064;2023-02-26T07:11:30;1.90;;;1.20;;
68744;SDS011;66104;45.456;11.064;2023-02-26T07:14:07;2.00;;;1.10;;
68744;SDS011;66104;45.456;11.064;2023-02-26T07:16:44;2.30;;;1.30;;
68744;SDS011;66104;45.456;11.064;2023-02-26T07:19:21;1.30;;;1.10;;
68744;SDS011;66104;45.456;11.064;2023-02-26T07:21:57;2.20;;;1.40;;
68744;SDS011;66104;45.456;11.064;2023-02-26T07:24:33;2.50;;;1.10;;
68744;SDS011;66104;45.456;11.064;2023-02-26T07:27:11;1.50;;;1.10;;
68744;SDS011;66104;45.456;11.064;2023-02-26T07:29:47;1.20;;;1.00;;
68744;SDS011;66104;45.456;11.064;2023-02-26T07:32:24;1.30;;;1.00;;
68744;SDS011;66104;45.456;11.064;2023-02-26T07:35:00;2.30;;;1.30;;
68744;SDS011;66104;45.456;11.064;2023-02-26T07:37:36;1.50;;;1.10;;
68744;SDS011;66104;45.456;11.064;2023-02-26T07:40:16;2.60;;;1.20;;
68744;SDS011;66104;45.456;11.064;2023-02-26T07:42:53;1.90;;;1.30;;
68744;SDS011;66104;45.456;11.064;2023-02-26T07:45:30;2.10;;;1.00;;
68744;SDS011;66104;45.456;11.064;2023-02-26T07:48:07;1.70;;;1.00;;
68744;SDS011;66104;45.456;11.064;2023-02-26T07:50:43;3.40;;;1.00;;
68744;SDS011;66104;45.456;11.064;2023-02-26T07:53:20;1.80;;;1.00;;
68744;SDS011;66104;45.456;11.064;2023-02-26T07:55:56;1.50;;;1.10;;
68744;SDS011;66104;45.456;11.064;2023-02-26T07:58:33;2.80;;;1.00;;
68744;SDS011;66104;45.456;11.064;2023-02-26T08:01:09;2.40;;;1.20;;
68744;SDS011;66104;45.456;11.064;2023-02-26T08:03:46;1.60;;;1.20;;
68744;SDS011;66104;45.456;11.064;2023-02-26T08:06:22;1.00;;;0.90;;
68744;SDS011;66104;45.456;11.064;2023-02-26T08:08:59;2.10;;;1.10;;
68744;SDS011;66104;45.456;11.064;2023-02-26T08:11:36;1.60;;;1.00;;
68744;SDS011;66104;45.456;11.064;2023-02-26T08:14:14;2.00;;;1.00;;
68744;SDS011;66104;45.456;11.064;2023-02-26T08:16:51;1.80;;;1.10;;
68744;SDS011;66104;45.456;11.064;2023-02-26T08:19:28;1.90;;;1.10;;
68744;SDS011;66104;45.456;11.064;2023-02-26T08:22:05;1.20;;;0.90;;
68744;SDS011;66104;45.456;11.064;2023-02-26T08:24:42;1.10;;;1.00;;
68744;SDS011;66104;45.456;11.064;2023-02-26T08:27:19;1.40;;;1.00;;
68744;SDS011;66104;45.456;11.064;2023-02-26T08:29:56;2.20;;;1.00;;
68744;SDS011;66104;45.456;11.064;2023-02-26T08:32:32;2.10;;;1.20;;
68744;SDS011;66104;45.456;11.064;2023-02-26T08:35:11;1.70;;;1.20;;
68744;SDS011;66104;45.456;11.064;2023-02-26T08:37:48;1.40;;;1.00;;
68744;SDS011;66104;45.456;11.064;2023-02-26T08:40:25;2.10;;;1.30;;
68744;SDS011;66104;45.456;11.064;2023-02-26T08:43:01;1.60;;;1.00;;
68744;SDS011;66104;45.456;11.064;2023-02-26T08:45:39;1.70;;;1.10;;
68744;SDS011;66104;45.456;11.064;2023-02-26T08:48:16;1.60;;;1.20;;
68744;SDS011;66104;45.456;11.064;2023-02-26T08:50:52;1.60;;;1.10;;
68744;SDS011;66104;45.456;11.064;2023-02-26T08:53:29;2.10;;;1.00;;
68744;SDS011;66104;45.456;11.064;2023-02-26T08:56:08;12.10;;;1.30;;
68744;SDS011;66104;45.456;11.064;2023-02-26T08:58:44;2.60;;;1.30;;
68744;SDS011;66104;45.456;11.064;2023-02-26T09:01:21;1.60;;;1.20;;
68744;SDS011;66104;45.456;11.064;2023-02-26T09:03:58;1.40;;;1.10;;
68744;SDS011;66104;45.456;11.064;2023-02-26T09:06:35;1.50;;;1.20;;
68744;SDS011;66104;45.456;11.064;2023-02-26T09:09:12;2.10;;;1.10;;
68744;SDS011;66104;45.456;11.064;2023-02-26T09:11:49;1.80;;;1.20;;
68744;SDS011;66104;45.456;11.064;2023-02-26T09:14:27;1.40;;;1.10;;
68744;SDS011;66104;45.456;11.064;2023-02-26T09:17:04;1.90;;;1.30;;
68744;SDS011;66104;45.456;11.064;2023-02-26T09:19:40;2.90;;;1.10;;
68744;SDS011;66104;45.456;11.064;2023-02-26T09:22:18;2.40;;;1.30;;
68744;SDS011;66104;45.456;11.064;2023-02-26T09:24:55;1.70;;;1.30;;
68744;SDS011;66104;45.456;11.064;2023-02-26T09:27:31;1.30;;;1.10;;
68744;SDS011;66104;45.456;11.064;2023-02-26T09:30:14;3.80;;;1.10;;
68744;SDS011;66104;45.456;11.064;2023-02-26T09:32:51;1.60;;;1.20;;
68744;SDS011;66104;45.456;11.064;2023-02-26T09:35:28;2.00;;;1.20;;
68744;SDS011;66104;45.456;11.064;2023-02-26T09:38:05;1.40;;;1.00;;
68744;SDS011;66104;45.456;11.064;2023-02-26T09:40:47;1.80;;;1.20;;
68744;SDS011;66104;45.456;11.064;2023-02-26T09:43:40;1.80;;;1.20;;
68744;SDS011;66104;45.456;11.064;2023-02-26T09:46:35;2.00;;;1.30;;
68744;SDS011;66104;45.456;11.064;2023-02-26T09:49:21;2.30;;;1.30;;
68744;SDS011;66104;45.456;11.064;2023-02-26T09:52:09;1.90;;;1.30;;
68744;SDS011;66104;45.456;11.064;2023-02-26T09:54:55;2.20;;;1.40;;
68744;SDS011;66104;45.456;11.064;2023-02-26T09:57:35;1.90;;;1.20;;
68744;SDS011;66104;45.456;11.064;2023-02-26T10:00:25;2.00;;;1.20;;
68744;SDS011;66104;45.456;11.064;2023-02-26T10:03:18;1.80;;;1.30;;
68744;SDS011;66104;45.456;11.064;2023-02-26T10:06:22;2.50;;;1.20;;
68744;SDS011;66104;45.456;11.064;2023-02-26T10:09:13;2.60;;;1.30;;
68744;SDS011;66104;45.456;11.064;2023-02-26T10:12:01;2.30;;;1.30;;
68744;SDS011;66104;45.456;11.064;2023-02-26T10:14:50;2.40;;;1.60;;
68744;SDS011;66104;45.456;11.064;2023-02-26T10:17:37;1.80;;;1.40;;
68744;SDS011;66104;45.456;11.064;2023-02-26T10:20:24;3.90;;;2.10;;
68744;SDS011;66104;45.456;11.064;2023-02-26T10:23:11;3.90;;;1.60;;
68744;SDS011;66104;45.456;11.064;2023-02-26T10:26:00;2.80;;;1.60;;
68744;SDS011;66104;45.456;11.064;2023-02-26T10:28:55;2.50;;;1.50;;
68744;SDS011;66104;45.456;11.064;2023-02-26T10:31:39;2.60;;;1.80;;
68744;SDS011;66104;45.456;11.064;2023-02-26T10:34:26;2.90;;;1.70;;
68744;SDS011;66104;45.456;11.064;2023-02-26T10:37:15;2.10;;;1.50;;
68744;SDS011;66104;45.456;11.064;2023-02-26T10:39:57;1.90;;;1.30;;
68744;SDS011;66104;45.456;11.064;2023-02-26T10:42:44;2.30;;;1.40;;
68744;SDS011;66104;45.456;11.064;2023-02-26T10:45:39;2.10;;;1.20;;
68744;SDS011;66104;45.456;11.064;2023-02-26T10:48:32;2.00;;;1.40;;
68744;SDS011;66104;45.456;11.064;2023-02-26T10:51:28;1.60;;;1.30;;
68744;SDS011;66104;45.456;11.064;2023-02-26T10:54:26;3.00;;;1.80;;
68744;SDS011;66104;45.456;11.064;2023-02-26T10:57:11;2.40;;;1.50;;
68744;SDS011;66104;45.456;11.064;2023-02-26T10:59:52;2.00;;;1.40;;
68744;SDS011;66104;45.456;11.064;2023-02-26T11:02:41;2.20;;;1.50;;
68744;SDS011;66104;45.456;11.064;2023-02-26T11:05:22;2.10;;;1.40;;
68744;SDS011;66104;45.456;11.064;2023-02-26T11:08:04;2.50;;;1.60;;
68744;SDS011;66104;45.456;11.064;2023-02-26T11:10:49;3.20;;;1.90;;
68744;SDS011;66104;45.456;11.064;2023-02-26T11:13:29;1.90;;;1.30;;
68744;SDS011;66104;45.456;11.064;2023-02-26T11:16:13;2.30;;;1.40;;
68744;SDS011;66104;45.456;11.064;2023-02-26T11:18:52;2.50;;;1.60;;
68744;SDS011;66104;45.456;11.064;2023-02-26T11:21:33;3.10;;;1.60;;
68744;SDS011;66104;45.456;11.064;2023-02-26T11:24:16;2.70;;;1.60;;
68744;SDS011;66104;45.456;11.064;2023-02-26T11:27:00;2.00;;;1.40;;
68744;SDS011;66104;45.456;11.064;2023-02-26T11:29:43;2.60;;;1.50;;
68744;SDS011;66104;45.456;11.064;2023-02-26T11:32:31;3.70;;;1.60;;
68744;SDS011;66104;45.456;11.064;2023-02-26T11:35:13;4.10;;;1.80;;
68744;SDS011;66104;45.456;11.064;2023-02-26T11:37:51;3.40;;;1.90;;
68744;SDS011;66104;45.456;11.064;2023-02-26T11:40:38;9.00;;;2.40;;
68744;SDS011;66104;45.456;11.064;2023-02-26T11:43:18;3.20;;;1.70;;
68744;SDS011;66104;45.456;11.064;2023-02-26T11:45:59;2.10;;;1.30;;
68744;SDS011;66104;45.456;11.064;2023-02-26T11:48:42;2.70;;;1.50;;
68744;SDS011;66104;45.456;11.064;2023-02-26T11:51:22;3.90;;;2.60;;
68744;SDS011;66104;45.456;11.064;2023-02-26T11:54:01;3.20;;;1.90;;
68744;SDS011;66104;45.456;11.064;2023-02-26T11:56:53;2.60;;;1.60;;
68744;SDS011;66104;45.456;11.064;2023-02-26T11:59:40;4.30;;;2.10;;
68744;SDS011;66104;45.456;11.064;2023-02-26T12:02:22;4.10;;;2.20;;
68744;SDS011;66104;45.456;11.064;2023-02-26T12:05:09;3.40;;;2.00;;
68744;SDS011;66104;45.456;11.064;2023-02-26T12:07:50;5.00;;;2.20;;
68744;SDS011;66104;45.456;11.064;2023-02-26T12:10:34;4.40;;;2.20;;
68744;SDS011;66104;45.456;11.064;2023-02-26T12:13:23;3.60;;;1.80;;
68744;SDS011;66104;45.456;11.064;2023-02-26T12:16:14;4.00;;;1.60;;
68744;SDS011;66104;45.456;11.064;2023-02-26T12:19:03;3.80;;;1.70;;
68744;SDS011;66104;45.456;11.064;2023-02-26T12:22:05;2.70;;;1.60;;
68744;SDS011;66104;45.456;11.064;2023-02-26T12:25:10;2.90;;;1.60;;
68744;SDS011;66104;45.456;11.064;2023-02-26T12:31:41;2.90;;;1.90;;
68744;SDS011;66104;45.456;11.064;2023-02-26T12:34:52;3.40;;;1.80;;
68744;SDS011;66104;45.456;11.064;2023-02-26T12:37:54;2.80;;;1.80;;
68744;SDS011;66104;45.456;11.064;2023-02-26T12:41:00;5.10;;;2.10;;
68744;SDS011;66104;45.456;11.064;2023-02-26T12:44:10;3.60;;;1.80;;
68744;SDS011;66104;45.456;11.064;2023-02-26T12:47:06;3.40;;;1.70;;
68744;SDS011;66104;45.456;11.064;2023-02-26T12:50:08;3.90;;;2.00;;
68744;SDS011;66104;45.456;11.064;2023-02-26T12:53:38;3.10;;;1.60;;
68744;SDS011;66104;45.456;11.064;2023-02-26T12:56:37;5.60;;;2.40;;
68744;SDS011;66104;45.456;11.064;2023-02-26T13:00:07;3.10;;;1.90;;
68744;SDS011;66104;45.456;11.064;2023-02-26T13:06:46;2.80;;;1.50;;
68744;SDS011;66104;45.456;11.064;2023-02-26T13:09:48;2.70;;;2.00;;
68744;SDS011;66104;45.456;11.064;2023-02-26T13:12:41;3.50;;;1.60;;
68744;SDS011;66104;45.456;11.064;2023-02-26T13:18:41;2.30;;;1.50;;
68744;SDS011;66104;45.456;11.064;2023-02-26T13:21:22;3.20;;;1.40;;
68744;SDS011;66104;45.456;11.064;2023-02-26T13:24:05;2.50;;;1.60;;
68744;SDS011;66104;45.456;11.064;2023-02-26T13:26:49;3.40;;;1.50;;
68744;SDS011;66104;45.456;11.064;2023-02-26T13:29:31;4.10;;;1.60;;
68744;SDS011;66104;45.456;11.064;2023-02-26T13:32:25;2.90;;;1.80;;
68744;SDS011;66104;45.456;11.064;2023-02-26T13:35:06;2.40;;;1.50;;
68744;SDS011;66104;45.456;11.064;2023-02-26T13:37:53;2.20;;;1.30;;
68744;SDS011;66104;45.456;11.064;2023-02-26T13:40:42;3.00;;;1.60;;
68744;SDS011;66104;45.456;11.064;2023-02-26T13:43:45;2.90;;;1.70;;
68744;SDS011;66104;45.456;11.064;2023-02-26T13:46:50;3.20;;;1.80;;
68744;SDS011;66104;45.456;11.064;2023-02-26T13:49:58;3.00;;;1.70;;
68744;SDS011;66104;45.456;11.064;2023-02-26T13:52:55;2.60;;;1.50;;
68744;SDS011;66104;45.456;11.064;2023-02-26T13:55:52;2.50;;;1.60;;
68744;SDS011;66104;45.456;11.064;2023-02-26T13:58:43;2.70;;;1.70;;
68744;SDS011;66104;45.456;11.064;2023-02-26T14:01:30;2.10;;;1.30;;
68744;SDS011;66104;45.456;11.064;2023-02-26T14:04:24;2.30;;;1.10;;
68744;SDS011;66104;45.456;11.064;2023-02-26T14:07:09;2.00;;;1.20;;
68744;SDS011;66104;45.456;11.064;2023-02-26T14:09:54;2.30;;;1.40;;
68744;SDS011;66104;45.456;11.064;2023-02-26T14:12:39;2.90;;;1.40;;
68744;SDS011;66104;45.456;11.064;2023-02-26T14:15:38;2.30;;;1.20;;
68744;SDS011;66104;45.456;11.064;2023-02-26T14:18:30;2.00;;;1.40;;
68744;SDS011;66104;45.456;11.064;2023-02-26T14:21:49;1.80;;;1.20;;
68744;SDS011;66104;45.456;11.064;2023-02-26T14:24:37;1.80;;;1.20;;
68744;SDS011;66104;45.456;11.064;2023-02-26T14:27:34;2.60;;;1.30;;
68744;SDS011;66104;45.456;11.064;2023-02-26T14:30:26;3.10;;;1.80;;
68744;SDS011;66104;45.456;11.064;2023-02-26T14:33:14;1.90;;;1.30;;
68744;SDS011;66104;45.456;11.064;2023-02-26T14:35:53;4.60;;;1.30;;
68744;SDS011;66104;45.456;11.064;2023-02-26T14:38:33;2.50;;;1.70;;
68744;SDS011;66104;45.456;11.064;2023-02-26T14:41:18;1.90;;;1.20;;
68744;SDS011;66104;45.456;11.064;2023-02-26T14:44:04;3.70;;;1.60;;
68744;SDS011;66104;45.456;11.064;2023-02-26T14:46:47;4.00;;;1.80;;
68744;SDS011;66104;45.456;11.064;2023-02-26T14:49:27;2.30;;;1.40;;
68744;SDS011;66104;45.456;11.064;2023-02-26T14:52:29;2.70;;;1.40;;
68744;SDS011;66104;45.456;11.064;2023-02-26T14:55:46;2.30;;;1.40;;
68744;SDS011;66104;45.456;11.064;2023-02-26T14:58:58;3.00;;;1.70;;
68744;SDS011;66104;45.456;11.064;2023-02-26T15:01:51;2.10;;;1.40;;
68744;SDS011;66104;45.456;11.064;2023-02-26T15:08:33;3.10;;;2.10;;
68744;SDS011;66104;45.456;11.064;2023-02-26T15:11:34;2.20;;;1.30;;
68744;SDS011;66104;45.456;11.064;2023-02-26T15:14:59;2.30;;;1.40;;
68744;SDS011;66104;45.456;11.064;2023-02-26T15:21:12;2.70;;;1.30;;
68744;SDS011;66104;45.456;11.064;2023-02-26T15:23:58;2.40;;;1.60;;
68744;SDS011;66104;45.456;11.064;2023-02-26T15:26:37;2.30;;;1.60;;
68744;SDS011;66104;45.456;11.064;2023-02-26T15:29:20;2.40;;;1.50;;
68744;SDS011;66104;45.456;11.064;2023-02-26T15:32:14;2.30;;;1.50;;
68744;SDS011;66104;45.456;11.064;2023-02-26T15:35:03;3.10;;;1.70;;
68744;SDS011;66104;45.456;11.064;2023-02-26T15:37:45;3.40;;;2.20;;
68744;SDS011;66104;45.456;11.064;2023-02-26T15:40:24;4.40;;;2.20;;
68744;SDS011;66104;45.456;11.064;2023-02-26T15:43:05;4.00;;;1.50;;
68744;SDS011;66104;45.456;11.064;2023-02-26T15:45:50;5.30;;;2.40;;
68744;SDS011;66104;45.456;11.064;2023-02-26T15:48:31;3.00;;;1.80;;
68744;SDS011;66104;45.456;11.064;2023-02-26T15:51:13;2.20;;;1.50;;
68744;SDS011;66104;45.456;11.064;2023-02-26T15:53:53;2.30;;;1.40;;
68744;SDS011;66104;45.456;11.064;2023-02-26T15:56:35;2.30;;;1.40;;
68744;SDS011;66104;45.456;11.064;2023-02-26T15:59:17;1.90;;;1.50;;
68744;SDS011;66104;45.456;11.064;2023-02-26T16:02:00;2.10;;;1.40;;
68744;SDS011;66104;45.456;11.064;2023-02-26T16:04:36;3.30;;;1.50;;
68744;SDS011;66104;45.456;11.064;2023-02-26T16:07:14;3.70;;;1.70;;
68744;SDS011;66104;45.456;11.064;2023-02-26T16:09:52;4.90;;;2.30;;
68744;SDS011;66104;45.456;11.064;2023-02-26T16:12:34;1.80;;;1.30;;
68744;SDS011;66104;45.456;11.064;2023-02-26T16:15:17;2.50;;;1.50;;
68744;SDS011;66104;45.456;11.064;2023-02-26T16:17:59;2.40;;;1.30;;
68744;SDS011;66104;45.456;11.064;2023-02-26T16:20:42;2.20;;;1.50;;
68744;SDS011;66104;45.456;11.064;2023-02-26T16:23:23;2.20;;;1.40;;
68744;SDS011;66104;45.456;11.064;2023-02-26T16:26:07;3.10;;;2.20;;
68744;SDS011;66104;45.456;11.064;2023-02-26T16:28:55;10.20;;;3.30;;
68744;SDS011;66104;45.456;11.064;2023-02-26T16:31:35;11.10;;;4.40;;